3DCSDF FDSK-FXMM
Flight info
| Callsign | 3DCSDF |
|---|---|
| Flight time | 1h 0m |
| Altitude | 26000 |
| Route | VSK DCT WRV DCT MZV |
| Aircraft | A343/H-SDE2E3FGHIJ4J5M1RWXY/LB1D1 |
Departure
| Time | 2026-04-30 12:53 |
|---|---|
| Airport | King Mswati III International Airport (FDSK) |
Arrival
| Time | 2026-04-30 13:53 |
|---|---|
| Airport | Moshoeshoe I International Airport (FXMM) |
| Time | Latitude | Longitude | Altitude | Speed | Heading |
|---|---|---|---|---|---|
| 2026-04-30 12:44 | -26.36828 | 31.72115 | 1076 ft | 0 kts | 359° |
| 2026-04-30 12:48 | -26.36827 | 31.72115 | 1076 ft | 0 kts | 359° |
| 2026-04-30 12:48 | -26.36807 | 31.72114 | 1073 ft | 8 kts | 359° |
| 2026-04-30 12:49 | -26.36741 | 31.72077 | 1076 ft | 13 kts | 294° |
| 2026-04-30 12:49 | -26.36739 | 31.71974 | 1073 ft | 14 kts | 270° |
| 2026-04-30 12:49 | -26.36740 | 31.71853 | 1071 ft | 17 kts | 269° |
| 2026-04-30 12:49 | -26.36773 | 31.71726 | 1070 ft | 17 kts | 214° |
| 2026-04-30 12:50 | -26.36891 | 31.71720 | 1075 ft | 17 kts | 179° |
| 2026-04-30 12:50 | -26.37017 | 31.71722 | 1075 ft | 19 kts | 180° |
| 2026-04-30 12:50 | -26.37156 | 31.71724 | 1075 ft | 21 kts | 180° |
| 2026-04-30 12:50 | -26.37299 | 31.71730 | 1074 ft | 21 kts | 169° |
| 2026-04-30 12:51 | -26.37431 | 31.71790 | 1078 ft | 20 kts | 178° |
| 2026-04-30 12:51 | -26.37464 | 31.71733 | 1079 ft | 7 kts | 303° |
| 2026-04-30 12:51 | -26.37433 | 31.71725 | 1076 ft | 0 kts | 356° |
| 2026-04-30 12:52 | -26.37374 | 31.71721 | 1078 ft | 34 kts | 356° |
| 2026-04-30 12:52 | -26.36898 | 31.71722 | 1073 ft | 100 kts | 1° |
| 2026-04-30 12:52 | -26.36030 | 31.71715 | 1075 ft | 149 kts | 359° |
| 2026-04-30 12:52 | -26.34939 | 31.71710 | 1620 ft | 154 kts | 4° |
| 2026-04-30 12:53 | -26.33874 | 31.71704 | 2384 ft | 159 kts | 2° |
| 2026-04-30 12:53 | -26.32683 | 31.71774 | 2886 ft | 182 kts | 4° |
| 2026-04-30 12:53 | -26.31340 | 31.71892 | 3326 ft | 210 kts | 4° |
| 2026-04-30 12:53 | -26.29808 | 31.71651 | 3859 ft | 235 kts | 337° |
| 2026-04-30 12:54 | -26.28538 | 31.70475 | 4882 ft | 244 kts | 307° |
| 2026-04-30 12:54 | -26.27874 | 31.68708 | 5859 ft | 253 kts | 287° |
| 2026-04-30 12:54 | -26.27577 | 31.66791 | 6919 ft | 254 kts | 275° |
| 2026-04-30 12:54 | -26.27805 | 31.64820 | 7961 ft | 262 kts | 256° |
| 2026-04-30 12:55 | -26.28509 | 31.62891 | 8864 ft | 273 kts | 248° |
| 2026-04-30 12:55 | -26.29466 | 31.61024 | 9785 ft | 281 kts | 241° |
| 2026-04-30 12:55 | -26.30572 | 31.59185 | 10566 ft | 292 kts | 240° |
| 2026-04-30 12:55 | -26.31789 | 31.57259 | 10951 ft | 316 kts | 239° |
| 2026-04-30 12:56 | -26.33084 | 31.55214 | 11263 ft | 338 kts | 239° |
| 2026-04-30 12:56 | -26.34461 | 31.53008 | 11667 ft | 354 kts | 239° |
| 2026-04-30 12:56 | -26.35869 | 31.50717 | 12346 ft | 361 kts | 240° |
| 2026-04-30 12:56 | -26.37293 | 31.48369 | 13083 ft | 367 kts | 240° |
| 2026-04-30 12:57 | -26.38723 | 31.45988 | 13860 ft | 372 kts | 240° |
| 2026-04-30 12:57 | -26.40171 | 31.43563 | 14515 ft | 377 kts | 241° |
| 2026-04-30 12:57 | -26.41615 | 31.41139 | 15225 ft | 380 kts | 241° |
| 2026-04-30 12:57 | -26.43082 | 31.38671 | 15987 ft | 382 kts | 241° |
| 2026-04-30 12:58 | -26.44561 | 31.36180 | 16733 ft | 386 kts | 242° |
| 2026-04-30 12:58 | -26.46057 | 31.33662 | 17457 ft | 389 kts | 242° |
| 2026-04-30 12:58 | -26.47558 | 31.31133 | 18186 ft | 393 kts | 242° |
| 2026-04-30 12:58 | -26.49061 | 31.28603 | 18832 ft | 397 kts | 242° |
| 2026-04-30 12:59 | -26.50590 | 31.26028 | 19466 ft | 399 kts | 242° |
| 2026-04-30 12:59 | -26.52134 | 31.23429 | 20121 ft | 402 kts | 242° |
| 2026-04-30 12:59 | -26.53693 | 31.20802 | 20721 ft | 405 kts | 242° |
| 2026-04-30 12:59 | -26.55257 | 31.18162 | 21310 ft | 408 kts | 242° |
| 2026-04-30 13:00 | -26.56808 | 31.15544 | 21891 ft | 410 kts | 242° |
| 2026-04-30 13:00 | -26.58392 | 31.12870 | 22465 ft | 414 kts | 242° |
| 2026-04-30 13:00 | -26.59987 | 31.10173 | 23038 ft | 416 kts | 242° |
| 2026-04-30 13:00 | -26.61594 | 31.07455 | 23595 ft | 420 kts | 243° |
| 2026-04-30 13:01 | -26.63213 | 31.04713 | 24069 ft | 423 kts | 242° |
| 2026-04-30 13:01 | -26.64820 | 31.01994 | 24525 ft | 426 kts | 242° |
| 2026-04-30 13:01 | -26.66454 | 30.99227 | 24990 ft | 428 kts | 242° |
| 2026-04-30 13:01 | -26.68099 | 30.96440 | 25475 ft | 430 kts | 242° |
| 2026-04-30 13:02 | -26.69753 | 30.93635 | 25896 ft | 433 kts | 242° |
| 2026-04-30 13:02 | -26.71418 | 30.90808 | 26091 ft | 436 kts | 242° |
| 2026-04-30 13:02 | -26.73108 | 30.87931 | 26134 ft | 445 kts | 242° |
| 2026-04-30 13:02 | -26.74793 | 30.85064 | 26127 ft | 448 kts | 242° |
| 2026-04-30 13:03 | -26.76510 | 30.82146 | 26128 ft | 448 kts | 242° |
| 2026-04-30 13:03 | -26.78226 | 30.79230 | 26132 ft | 447 kts | 242° |
| 2026-04-30 13:03 | -26.79940 | 30.76317 | 26130 ft | 447 kts | 242° |
| 2026-04-30 13:03 | -26.81654 | 30.73401 | 26131 ft | 447 kts | 242° |
| 2026-04-30 13:04 | -26.83339 | 30.70528 | 26132 ft | 447 kts | 242° |
| 2026-04-30 13:04 | -26.85050 | 30.67611 | 26130 ft | 447 kts | 242° |
| 2026-04-30 13:04 | -26.86754 | 30.64700 | 26131 ft | 447 kts | 242° |
| 2026-04-30 13:04 | -26.88460 | 30.61787 | 26136 ft | 447 kts | 242° |
| 2026-04-30 13:05 | -26.90165 | 30.58870 | 26128 ft | 447 kts | 242° |
| 2026-04-30 13:05 | -26.91871 | 30.55954 | 26129 ft | 447 kts | 242° |
| 2026-04-30 13:05 | -26.93575 | 30.53035 | 26129 ft | 447 kts | 242° |
| 2026-04-30 13:06 | -26.96959 | 30.47235 | 26141 ft | 447 kts | 242° |
| 2026-04-30 13:06 | -26.98665 | 30.44309 | 26142 ft | 447 kts | 242° |
| 2026-04-30 13:06 | -27.00371 | 30.41381 | 26143 ft | 447 kts | 242° |
| 2026-04-30 13:06 | -27.02077 | 30.38451 | 26165 ft | 447 kts | 242° |
| 2026-04-30 13:07 | -27.03759 | 30.35560 | 26154 ft | 448 kts | 242° |
| 2026-04-30 13:07 | -27.05465 | 30.32627 | 26133 ft | 448 kts | 242° |
| 2026-04-30 13:07 | -27.07171 | 30.29692 | 26154 ft | 448 kts | 242° |
| 2026-04-30 13:07 | -27.08868 | 30.26768 | 26172 ft | 448 kts | 242° |
| 2026-04-30 13:08 | -27.10572 | 30.23831 | 26169 ft | 448 kts | 242° |
| 2026-04-30 13:08 | -27.12269 | 30.20904 | 26166 ft | 448 kts | 242° |
| 2026-04-30 13:08 | -27.13950 | 30.18005 | 26166 ft | 448 kts | 242° |
| 2026-04-30 13:08 | -27.15648 | 30.15074 | 26176 ft | 448 kts | 242° |
| 2026-04-30 13:09 | -27.17353 | 30.12128 | 26185 ft | 448 kts | 242° |
| 2026-04-30 13:09 | -27.19052 | 30.09192 | 26171 ft | 446 kts | 242° |
| 2026-04-30 13:09 | -27.20745 | 30.06264 | 26188 ft | 445 kts | 242° |
| 2026-04-30 13:09 | -27.22429 | 30.03350 | 26179 ft | 445 kts | 242° |
| 2026-04-30 13:10 | -27.24117 | 30.00426 | 26179 ft | 445 kts | 242° |
| 2026-04-30 13:10 | -27.25800 | 29.97507 | 26169 ft | 445 kts | 242° |
| 2026-04-30 13:10 | -27.27481 | 29.94590 | 26182 ft | 445 kts | 242° |
| 2026-04-30 13:10 | -27.29146 | 29.91699 | 26171 ft | 445 kts | 242° |
| 2026-04-30 13:11 | -27.30831 | 29.88771 | 26177 ft | 445 kts | 242° |
| 2026-04-30 13:11 | -27.32516 | 29.85843 | 26174 ft | 445 kts | 242° |
| 2026-04-30 13:11 | -27.34177 | 29.82953 | 26178 ft | 445 kts | 242° |
| 2026-04-30 13:11 | -27.35856 | 29.80032 | 26180 ft | 444 kts | 242° |
| 2026-04-30 13:12 | -27.37539 | 29.77103 | 26183 ft | 444 kts | 242° |
| 2026-04-30 13:12 | -27.39214 | 29.74183 | 26176 ft | 443 kts | 242° |
| 2026-04-30 13:12 | -27.40888 | 29.71264 | 26176 ft | 443 kts | 242° |
| 2026-04-30 13:13 | -27.44223 | 29.65443 | 26179 ft | 443 kts | 242° |
| 2026-04-30 13:13 | -27.45892 | 29.62526 | 26177 ft | 443 kts | 242° |
| 2026-04-30 13:13 | -27.49214 | 29.56715 | 26185 ft | 443 kts | 242° |
| 2026-04-30 13:14 | -27.50885 | 29.53790 | 26198 ft | 443 kts | 242° |
| 2026-04-30 13:14 | -27.52557 | 29.50861 | 26188 ft | 443 kts | 243° |
| 2026-04-30 13:14 | -27.55894 | 29.45009 | 26196 ft | 443 kts | 243° |
| 2026-04-30 13:15 | -27.57536 | 29.42126 | 26191 ft | 443 kts | 243° |
| 2026-04-30 13:15 | -27.60864 | 29.36278 | 26197 ft | 443 kts | 243° |
| 2026-04-30 13:15 | -27.62533 | 29.33343 | 26196 ft | 443 kts | 243° |
| 2026-04-30 13:16 | -27.64196 | 29.30416 | 26190 ft | 443 kts | 243° |
| 2026-04-30 13:16 | -27.65858 | 29.27489 | 26187 ft | 443 kts | 243° |
| 2026-04-30 13:16 | -27.67517 | 29.24565 | 26205 ft | 443 kts | 243° |
| 2026-04-30 13:17 | -27.70812 | 29.18752 | 26186 ft | 442 kts | 243° |
| 2026-04-30 13:17 | -27.72470 | 29.15824 | 26183 ft | 441 kts | 243° |
| 2026-04-30 13:17 | -27.75222 | 29.10957 | 26188 ft | 441 kts | 243° |
| 2026-04-30 13:18 | -27.77653 | 29.07243 | 26188 ft | 450 kts | 233° |
| 2026-04-30 13:18 | -27.82424 | 29.02536 | 26184 ft | 457 kts | 225° |
| 2026-04-30 13:18 | -27.84943 | 29.00320 | 26187 ft | 459 kts | 224° |
| 2026-04-30 13:19 | -27.87489 | 28.98138 | 26186 ft | 459 kts | 224° |
| 2026-04-30 13:19 | -27.90038 | 28.95967 | 26186 ft | 459 kts | 224° |
| 2026-04-30 13:19 | -27.92562 | 28.93810 | 26190 ft | 459 kts | 224° |
| 2026-04-30 13:19 | -27.95105 | 28.91622 | 26184 ft | 458 kts | 224° |
| 2026-04-30 13:20 | -27.97640 | 28.89427 | 26185 ft | 457 kts | 224° |
| 2026-04-30 13:20 | -28.00166 | 28.87230 | 26186 ft | 457 kts | 224° |
| 2026-04-30 13:20 | -28.02662 | 28.85053 | 26185 ft | 457 kts | 224° |
| 2026-04-30 13:20 | -28.05184 | 28.82851 | 26176 ft | 457 kts | 224° |
| 2026-04-30 13:21 | -28.07709 | 28.80645 | 26181 ft | 457 kts | 224° |
| 2026-04-30 13:21 | -28.09375 | 28.79187 | 26183 ft | 457 kts | 224° |
| 2026-04-30 13:21 | -28.11896 | 28.76982 | 26183 ft | 457 kts | 224° |
| 2026-04-30 13:22 | -28.17762 | 28.71846 | 26183 ft | 457 kts | 224° |
| 2026-04-30 13:22 | -28.19461 | 28.70357 | 26182 ft | 457 kts | 224° |
| 2026-04-30 13:22 | -28.24498 | 28.65942 | 26195 ft | 457 kts | 225° |
| 2026-04-30 13:23 | -28.26991 | 28.63755 | 26184 ft | 457 kts | 225° |
| 2026-04-30 13:23 | -28.32025 | 28.59334 | 26186 ft | 456 kts | 225° |
| 2026-04-30 13:24 | -28.37029 | 28.54934 | 26190 ft | 456 kts | 225° |
| 2026-04-30 13:24 | -28.42053 | 28.50509 | 26191 ft | 456 kts | 225° |
| 2026-04-30 13:25 | -28.47071 | 28.46080 | 26200 ft | 456 kts | 225° |
| 2026-04-30 13:25 | -28.52057 | 28.41678 | 26198 ft | 456 kts | 225° |
| 2026-04-30 13:26 | -28.59582 | 28.35032 | 26208 ft | 456 kts | 225° |
| 2026-04-30 13:26 | -28.64573 | 28.30616 | 26204 ft | 453 kts | 225° |
| 2026-04-30 13:27 | -28.69510 | 28.26239 | 26208 ft | 451 kts | 225° |
| 2026-04-30 13:28 | -28.76957 | 28.19624 | 26208 ft | 451 kts | 225° |
| 2026-04-30 13:28 | -28.82303 | 28.15775 | 26209 ft | 460 kts | 216° |
| 2026-04-30 13:28 | -28.85141 | 28.14043 | 26208 ft | 461 kts | 215° |
| 2026-04-30 13:29 | -28.90836 | 28.10625 | 26208 ft | 462 kts | 215° |
| 2026-04-30 13:29 | -28.95043 | 28.08109 | 26171 ft | 462 kts | 215° |
| 2026-04-30 13:30 | -29.03442 | 28.03094 | 25495 ft | 451 kts | 214° |
| 2026-04-30 13:31 | -29.08989 | 27.99773 | 25045 ft | 449 kts | 214° |
| 2026-04-30 13:31 | -29.17254 | 27.94821 | 24313 ft | 446 kts | 214° |
| 2026-04-30 13:32 | -29.22675 | 27.91570 | 23008 ft | 440 kts | 214° |
| 2026-04-30 13:32 | -29.28077 | 27.88323 | 21649 ft | 435 kts | 214° |
| 2026-04-30 13:33 | -29.33413 | 27.85115 | 20300 ft | 430 kts | 214° |
| 2026-04-30 13:33 | -29.38664 | 27.81951 | 18991 ft | 427 kts | 213° |
| 2026-04-30 13:34 | -29.41294 | 27.80365 | 18338 ft | 425 kts | 213° |
| 2026-04-30 13:34 | -29.49074 | 27.75668 | 16247 ft | 416 kts | 214° |
| 2026-04-30 13:35 | -29.51582 | 27.74154 | 15618 ft | 412 kts | 213° |
| 2026-04-30 13:35 | -29.56632 | 27.71098 | 14326 ft | 407 kts | 213° |
| 2026-04-30 13:36 | -29.61602 | 27.68081 | 12915 ft | 400 kts | 213° |
| 2026-04-30 13:36 | -29.64011 | 27.66627 | 12422 ft | 391 kts | 213° |
| 2026-04-30 13:36 | -29.68611 | 27.63842 | 12209 ft | 354 kts | 215° |
| 2026-04-30 13:37 | -29.70442 | 27.62137 | 12214 ft | 324 kts | 238° |
| 2026-04-30 13:37 | -29.71436 | 27.57651 | 11958 ft | 279 kts | 282° |
| 2026-04-30 13:38 | -29.70565 | 27.53449 | 11456 ft | 268 kts | 287° |
| 2026-04-30 13:38 | -29.69874 | 27.51470 | 11098 ft | 266 kts | 303° |
| 2026-04-30 13:38 | -29.66803 | 27.49500 | 10794 ft | 262 kts | 355° |
| 2026-04-30 13:39 | -29.63286 | 27.50306 | 10555 ft | 254 kts | 8° |
| 2026-04-30 13:39 | -29.59965 | 27.51303 | 10443 ft | 239 kts | 8° |
| 2026-04-30 13:40 | -29.58378 | 27.51772 | 10341 ft | 232 kts | 8° |
| 2026-04-30 13:40 | -29.56826 | 27.52222 | 10225 ft | 227 kts | 6° |
| 2026-04-30 13:40 | -29.55319 | 27.52651 | 10059 ft | 225 kts | 6° |
| 2026-04-30 13:40 | -29.53805 | 27.53081 | 9874 ft | 224 kts | 6° |
| 2026-04-30 13:41 | -29.52292 | 27.53511 | 9628 ft | 223 kts | 7° |
| 2026-04-30 13:41 | -29.50807 | 27.53935 | 9521 ft | 215 kts | 7° |
| 2026-04-30 13:41 | -29.49392 | 27.54344 | 9294 ft | 204 kts | 7° |
| 2026-04-30 13:41 | -29.47964 | 27.54740 | 8564 ft | 216 kts | 8° |
| 2026-04-30 13:42 | -29.46545 | 27.55143 | 8313 ft | 205 kts | 10° |
| 2026-04-30 13:42 | -29.45183 | 27.55621 | 7998 ft | 205 kts | 22° |
| 2026-04-30 13:42 | -29.42912 | 27.57491 | 7474 ft | 209 kts | 62° |
| 2026-04-30 13:43 | -29.42436 | 27.59082 | 7619 ft | 213 kts | 69° |
| 2026-04-30 13:43 | -29.41907 | 27.60681 | 8017 ft | 215 kts | 65° |
| 2026-04-30 13:43 | -29.41341 | 27.62326 | 8203 ft | 230 kts | 65° |
| 2026-04-30 13:43 | -29.40750 | 27.64046 | 8498 ft | 233 kts | 64° |
| 2026-04-30 13:44 | -29.40092 | 27.65757 | 9074 ft | 233 kts | 54° |
| 2026-04-30 13:44 | -29.39006 | 27.67028 | 9685 ft | 213 kts | 23° |
| 2026-04-30 13:44 | -29.37743 | 27.67780 | 10052 ft | 202 kts | 15° |
| 2026-04-30 13:44 | -29.36481 | 27.68472 | 10114 ft | 201 kts | 15° |
| 2026-04-30 13:45 | -29.33930 | 27.69859 | 10105 ft | 204 kts | 15° |
| 2026-04-30 13:45 | -29.32645 | 27.70559 | 10106 ft | 204 kts | 15° |
| 2026-04-30 13:45 | -29.31360 | 27.71240 | 10103 ft | 204 kts | 15° |
| 2026-04-30 13:46 | -29.30068 | 27.71925 | 10102 ft | 204 kts | 15° |
| 2026-04-30 13:46 | -29.28777 | 27.72604 | 10024 ft | 204 kts | 15° |
| 2026-04-30 13:46 | -29.27489 | 27.73272 | 9711 ft | 202 kts | 16° |
| 2026-04-30 13:46 | -29.26202 | 27.73841 | 9365 ft | 198 kts | 7° |
| 2026-04-30 13:47 | -29.24859 | 27.73972 | 9039 ft | 191 kts | 348° |
| 2026-04-30 13:47 | -29.23649 | 27.73461 | 8713 ft | 184 kts | 323° |
| 2026-04-30 13:47 | -29.22851 | 27.72339 | 8397 ft | 185 kts | 295° |
| 2026-04-30 13:47 | -29.22708 | 27.70877 | 8149 ft | 191 kts | 263° |
| 2026-04-30 13:48 | -29.23218 | 27.69435 | 8104 ft | 199 kts | 243° |
| 2026-04-30 13:48 | -29.23987 | 27.68117 | 8106 ft | 199 kts | 242° |
| 2026-04-30 13:48 | -29.24757 | 27.66804 | 8106 ft | 198 kts | 239° |
| 2026-04-30 13:48 | -29.25594 | 27.65542 | 8092 ft | 200 kts | 236° |
| 2026-04-30 13:49 | -29.26526 | 27.64351 | 8098 ft | 200 kts | 230° |
| 2026-04-30 13:49 | -29.27550 | 27.63275 | 8097 ft | 203 kts | 225° |
| 2026-04-30 13:49 | -29.28587 | 27.62175 | 8097 ft | 202 kts | 231° |
| 2026-04-30 13:49 | -29.29574 | 27.61033 | 8092 ft | 205 kts | 222° |
| 2026-04-30 13:50 | -29.30824 | 27.60210 | 8046 ft | 209 kts | 206° |
| 2026-04-30 13:50 | -29.33536 | 27.59255 | 7524 ft | 193 kts | 200° |
| 2026-04-30 13:50 | -29.34777 | 27.58836 | 7289 ft | 176 kts | 197° |
| 2026-04-30 13:51 | -29.35915 | 27.58478 | 7036 ft | 163 kts | 196° |
| 2026-04-30 13:51 | -29.36953 | 27.58150 | 6816 ft | 150 kts | 195° |
| 2026-04-30 13:51 | -29.37934 | 27.57839 | 6625 ft | 143 kts | 194° |
| 2026-04-30 13:51 | -29.38890 | 27.57540 | 6415 ft | 142 kts | 194° |
| 2026-04-30 13:52 | -29.39840 | 27.57245 | 6233 ft | 141 kts | 194° |
| 2026-04-30 13:52 | -29.40790 | 27.56948 | 6037 ft | 141 kts | 193° |
| 2026-04-30 13:52 | -29.41728 | 27.56655 | 5869 ft | 141 kts | 193° |
| 2026-04-30 13:52 | -29.42677 | 27.56358 | 5691 ft | 140 kts | 194° |
| 2026-04-30 13:53 | -29.43620 | 27.56064 | 5535 ft | 140 kts | 194° |
| 2026-04-30 13:53 | -29.44561 | 27.55769 | 5391 ft | 134 kts | 194° |
| 2026-04-30 13:53 | -29.45288 | 27.55544 | 5407 ft | 82 kts | 195° |
| 2026-04-30 13:53 | -29.45667 | 27.55429 | 5414 ft | 30 kts | 194° |
| 2026-04-30 13:54 | -29.45738 | 27.55408 | 5414 ft | 5 kts | 195° |
| 2026-04-30 13:54 | -29.45785 | 27.55393 | 5415 ft | 11 kts | 195° |
| 2026-04-30 13:54 | -29.45894 | 27.55357 | 5415 ft | 22 kts | 196° |
| 2026-04-30 13:54 | -29.46041 | 27.55310 | 5417 ft | 22 kts | 195° |
| 2026-04-30 13:55 | -29.46172 | 27.55268 | 5419 ft | 12 kts | 195° |
| 2026-04-30 13:55 | -29.46214 | 27.55288 | 5420 ft | 4 kts | 115° |
| 2026-04-30 13:55 | -29.46215 | 27.55343 | 5420 ft | 12 kts | 88° |
| 2026-04-30 13:55 | -29.46209 | 27.55432 | 5422 ft | 7 kts | 75° |
| 2026-04-30 13:56 | -29.46187 | 27.55464 | 5426 ft | 4 kts | 34° |
| 2026-04-30 13:56 | -29.46131 | 27.55481 | 5421 ft | 14 kts | 14° |
| 2026-04-30 13:56 | -29.46031 | 27.55512 | 5418 ft | 17 kts | 15° |
| 2026-04-30 13:56 | -29.45910 | 27.55550 | 5417 ft | 19 kts | 15° |
| 2026-04-30 13:57 | -29.45776 | 27.55594 | 5414 ft | 21 kts | 15° |
| 2026-04-30 13:57 | -29.45628 | 27.55638 | 5412 ft | 23 kts | 15° |
| 2026-04-30 13:57 | -29.45535 | 27.55694 | 5412 ft | 8 kts | 74° |
| 2026-04-30 13:57 | -29.45528 | 27.55746 | 5411 ft | 9 kts | 57° |
| 2026-04-30 13:58 | -29.45459 | 27.55775 | 5410 ft | 10 kts | 24° |
| 2026-04-30 13:58 | -29.45488 | 27.55830 | 5408 ft | 6 kts | 187° |
| 2026-04-30 13:58 | -29.45504 | 27.55825 | 5411 ft | 0 kts | 195° |
| 2026-04-30 13:59 | -29.45505 | 27.55824 | 5411 ft | 0 kts | 195° |